Pride Of Burgundy — MQSQ9 — position and weather

sailwx.info

Track history (hours):
 
Tides and Currents Weather Stations Pressure Air Temp Water Temp Dewpoint Dewpoint Depression Visibility Wind Speed Wind Dir Waves Ship Positions

Pride Of Burgundy

Operator: P & O Ferries

Last reported at 2017-Aug-18 10:31 UTC. Time now 2017-Aug-18 10:51 UTC.
Position N 50°58' E 001°50'.

Length 180 m; draft 6.2 m.

Type: Passenger vessel. MMSI: 232001470.

Date/timePositionNaut miles runAvg speedWind from/ knotsBaromVisibWave heightAir tempDewpointWater temp
2017-Aug-18 10:31N 50°58' E 001°50'918.3
2017-Aug-18 10:00N 51°01' E 001°36'1019.3
2017-Aug-18 09:30N 51°06' E 001°24'3 5.4
2017-Aug-18 09:00N 51°07' E 001°20'0 0.0
2017-Aug-18 08:30N 51°07' E 001°20'3 5.9
2017-Aug-18 08:01N 51°07' E 001°25'917.2
2017-Aug-18 07:31N 51°02' E 001°36'816.0
2017-Aug-18 07:00N 50°58' E 001°47'2 4.6
2017-Aug-18 06:30N 50°58' E 001°51'0 0.0
2017-Aug-18 06:00N 50°58' E 001°51'5 9.4
2017-Aug-18 05:31N 50°58' E 001°44'918.8
2017-Aug-18 05:01N 51°03' E 001°31'815.7
2017-Aug-18 04:30N 51°07' E 001°20'0 0.0
2017-Aug-18 04:01N 51°07' E 001°20'0 0.0
2017-Aug-18 03:30N 51°07' E 001°20'0 0.7
2017-Aug-18 03:00N 51°07' E 001°21'816.9
2017-Aug-18 02:30N 51°06' E 001°34'816.4
2017-Aug-18 02:00N 50°59' E 001°42'611.5
2017-Aug-18 01:30N 50°58' E 001°51'0 0.0
2017-Aug-18 01:00N 50°58' E 001°51'0 0.0
2017-Aug-18 00:31N 50°58' E 001°51'0 0.0
2017-Aug-18 00:00N 50°58' E 001°51'0 0.0
2017-Aug-17 23:30N 50°58' E 001°51'0 0.0
2017-Aug-17 23:00N 50°58' E 001°51'0 0.0
2017-Aug-17 22:30N 50°58' E 001°51'0 0.0
2017-Aug-17 22:00N 50°58' E 001°51'0 0.0
2017-Aug-17 21:30N 50°58' E 001°51'0 0.0
2017-Aug-17 21:00N 50°58' E 001°51'0 0.0
2017-Aug-17 20:30N 50°58' E 001°51'0 0.0
2017-Aug-17 20:00N 50°58' E 001°51'2 3.7
2017-Aug-17 19:31N 50°58' E 001°48'1019.6
2017-Aug-17 19:00N 51°01' E 001°33'918.9
2017-Aug-17 18:30N 51°07' E 001°21'1 1.6
2017-Aug-17 17:57N 51°07' E 001°20'0 0.2
2017-Aug-17 17:30N 51°07' E 001°20'713.7
2017-Aug-17 17:00N 51°05' E 001°30'918.2
2017-Aug-17 16:30N 50°60' E 001°42'611.8
2017-Aug-17 16:00N 50°58' E 001°51'0 0.0
2017-Aug-17 15:30N 50°58' E 001°51'2 5.0
2017-Aug-17 15:00N 50°58' E 001°47'917.5
2017-Aug-17 14:30N 51°00' E 001°34'918.6
2017-Aug-17 14:00N 51°06' E 001°22'2 3.6
2017-Aug-17 13:30N 51°07' E 001°20'0 0.0
2017-Aug-17 12:58N 51°07' E 001°20'613.7
2017-Aug-17 12:30N 51°06' E 001°30'918.1
2017-Aug-17 12:00N 50°60' E 001°40'714.3
2017-Aug-17 11:30N 50°58' E 001°51'0 0.0
2017-Aug-17 11:00N 50°58' E 001°51'0 0.7
2017-Aug-17 10:30N 50°58' E 001°51'917.1
2017-Aug-17 10:00N 50°60' E 001°37'919.0
2017-Aug-17 09:30N 51°05' E 001°25'4 7.3
2017-Aug-17 09:00N 51°07' E 001°20'0 0.0
2017-Aug-17 08:28N 51°07' E 001°20'3 6.6
2017-Aug-17 08:00N 51°07' E 001°25'917.9
2017-Aug-17 07:30N 51°02' E 001°37'816.3
2017-Aug-17 07:00N 50°58' E 001°48'2 3.2
2017-Aug-17 06:30N 50°58' E 001°51'0 0.0
2017-Aug-17 06:00N 50°58' E 001°51'3 5.2
2017-Aug-17 05:30N 50°58' E 001°47'1019.5
2017-Aug-17 05:00N 51°01' E 001°32'917.5
2017-Aug-17 04:30N 51°07' E 001°22'1 2.1
2017-Aug-17 04:00N 51°07' E 001°20'0 0.0
2017-Aug-17 03:30N 51°07' E 001°20'0 0.1
2017-Aug-17 02:58N 51°07' E 001°20'613.4
2017-Aug-17 02:30N 51°05' E 001°29'918.1
2017-Aug-17 02:00N 50°60' E 001°41'613.0
2017-Aug-17 01:30N 50°58' E 001°51'0 0.0
2017-Aug-17 01:00N 50°58' E 001°51'0 0.0
2017-Aug-17 00:30N 50°58' E 001°51'0 0.0
2017-Aug-17 00:00N 50°58' E 001°51'0 0.0
2017-Aug-16 23:30N 50°58' E 001°51'0 0.0
2017-Aug-16 23:00N 50°58' E 001°51'0 0.0
2017-Aug-16 22:30N 50°58' E 001°51'0 0.0
2017-Aug-16 22:00N 50°58' E 001°51'0 0.0
2017-Aug-16 21:30N 50°58' E 001°51'0 0.0
2017-Aug-16 21:00N 50°58' E 001°51'0 0.0
2017-Aug-16 20:30N 50°58' E 001°51'0 0.0
2017-Aug-16 20:00N 50°58' E 001°51'3 6.2
2017-Aug-16 19:30N 50°58' E 001°46'1019.5
2017-Aug-16 19:00N 51°01' E 001°31'918.3
2017-Aug-16 18:30N 51°07' E 001°21'0 0.7
2017-Aug-16 18:00N 51°07' E 001°20'0 0.1
2017-Aug-16 17:29N 51°07' E 001°20'714.6
2017-Aug-16 17:00N 51°04' E 001°30'918.7
2017-Aug-16 16:30N 50°59' E 001°43'510.7
2017-Aug-16 16:00N 50°58' E 001°51'0 0.0
2017-Aug-16 15:31N 50°58' E 001°51'1 2.5
2017-Aug-16 15:00N 50°58' E 001°49'917.3
2017-Aug-16 14:30N 51°01' E 001°36'918.4
2017-Aug-16 14:00N 51°06' E 001°24'3 5.3
2017-Aug-16 13:29N 51°07' E 001°20'0 0.0
2017-Aug-16 13:00N 51°07' E 001°20'3 6.2
2017-Aug-16 12:31N 51°06' E 001°25'1019.1
2017-Aug-16 12:01N 51°01' E 001°38'917.6
2017-Aug-16 11:30N 50°58' E 001°51'0 0.5
2017-Aug-16 11:00N 50°58' E 001°51'2 3.1
2017-Aug-16 10:30N 50°58' E 001°49'917.8
2017-Aug-16 10:00N 50°60' E 001°35'1019.1
2017-Aug-16 09:30N 51°06' E 001°23'2 4.6
2017-Aug-16 08:59N 51°07' E 001°20'0 0.0
2017-Aug-16 08:29N 51°07' E 001°20'510.5
2017-Aug-16 08:00N 51°06' E 001°28'918.3
2017-Aug-16 07:31N 51°00' E 001°39'815.5
2017-Aug-16 07:01N 50°58' E 001°51'0 0.4
2017-Aug-16 06:31N 50°58' E 001°51'0 1.0
2017-Aug-16 06:00N 50°58' E 001°50'918.0
2017-Aug-16 05:30N 50°60' E 001°36'918.9
2017-Aug-16 05:00N 51°06' E 001°25'3 6.2
2017-Aug-16 04:28N 51°07' E 001°20'0 0.0
2017-Aug-16 04:00N 51°07' E 001°20'0 0.0
2017-Aug-16 03:30N 51°07' E 001°20'0 0.1
2017-Aug-16 03:00N 51°07' E 001°20'613.2
2017-Aug-16 02:31N 51°05' E 001°30'917.7
2017-Aug-16 02:01N 50°59' E 001°40'713.6
2017-Aug-16 01:30N 50°58' E 001°51'0 0.0
2017-Aug-16 01:00N 50°58' E 001°51'0 0.0
2017-Aug-16 00:31N 50°58' E 001°51'0 0.0
2017-Aug-16 00:00N 50°58' E 001°51'0 0.0
2017-Aug-15 23:30N 50°58' E 001°51'0 0.0
2017-Aug-15 23:00N 50°58' E 001°51'0 0.0
2017-Aug-15 22:30N 50°58' E 001°51'0 0.0
2017-Aug-15 22:00N 50°58' E 001°51'0 0.0
2017-Aug-15 21:30N 50°58' E 001°51'0 0.0
2017-Aug-15 21:00N 50°58' E 001°51'0 0.0
2017-Aug-15 20:30N 50°58' E 001°51'0 0.0
2017-Aug-15 20:00N 50°58' E 001°51'0 0.3
2017-Aug-15 19:30N 50°58' E 001°51'917.5
2017-Aug-15 19:00N 50°60' E 001°37'1019.4
2017-Aug-15 18:30N 51°05' E 001°25'3 6.9
2017-Aug-15 18:00N 51°07' E 001°20'0 0.0
2017-Aug-15 17:30N 51°07' E 001°20'4 9.0
2017-Aug-15 17:01N 51°06' E 001°27'918.2
2017-Aug-15 16:31N 51°01' E 001°39'815.5
2017-Aug-15 16:00N 50°58' E 001°50'0 1.0
2017-Aug-15 15:30N 50°58' E 001°51'0 0.3
2017-Aug-15 15:01N 50°58' E 001°51'917.6
2017-Aug-15 14:30N 50°59' E 001°37'918.6
2017-Aug-15 14:01N 51°05' E 001°26'4 8.4
2017-Aug-15 13:30N 51°07' E 001°20'0 0.0
2017-Aug-15 13:00N 51°07' E 001°20'2 4.1
2017-Aug-15 12:31N 51°07' E 001°23'1019.4
2017-Aug-15 12:01N 51°02' E 001°36'918.2
2017-Aug-15 11:30N 50°58' E 001°50'1 1.5
2017-Aug-15 11:00N 50°58' E 001°51'0 0.0
2017-Aug-15 10:30N 50°58' E 001°51'612.0
2017-Aug-15 10:01N 50°58' E 001°41'918.6
2017-Aug-15 09:30N 51°04' E 001°29'713.6
2017-Aug-15 09:00N 51°07' E 001°20'0 0.0
2017-Aug-15 08:28N 51°07' E 001°20'0 0.3
2017-Aug-15 08:00N 51°07' E 001°20'815.9
2017-Aug-15 07:31N 51°04' E 001°32'918.7
2017-Aug-15 07:00N 50°59' E 001°44'5 9.2
2017-Aug-15 06:30N 50°58' E 001°51'0 0.0
2017-Aug-15 06:01N 50°58' E 001°51'2 3.7
2017-Aug-15 05:30N 50°58' E 001°48'1019.2
2017-Aug-15 05:00N 51°01' E 001°33'1019.1
2017-Aug-15 04:30N 51°07' E 001°21'1 2.1
2017-Aug-15 04:00N 51°07' E 001°20'0 0.0
2017-Aug-15 03:30N 51°07' E 001°20'0 0.0
2017-Aug-15 03:00N 51°07' E 001°20'612.8
2017-Aug-15 02:30N 51°04' E 001°29'816.8
2017-Aug-15 02:00N 50°60' E 001°40'713.6
2017-Aug-15 01:30N 50°58' E 001°50'0 0.9
2017-Aug-15 01:00N 50°58' E 001°51'0 0.0
2017-Aug-15 00:30N 50°58' E 001°51'0 0.0
2017-Aug-15 00:00N 50°58' E 001°51'0 0.0
2017-Aug-14 23:30N 50°58' E 001°51'0 0.0
2017-Aug-14 23:00N 50°58' E 001°51'0 0.0
2017-Aug-14 22:30N 50°58' E 001°51'0 0.0
2017-Aug-14 22:00N 50°58' E 001°51'0 0.0
2017-Aug-14 21:30N 50°58' E 001°51'0 0.0
2017-Aug-14 21:00N 50°58' E 001°51'0 0.0
2017-Aug-14 20:30N 50°58' E 001°51'0 0.0
2017-Aug-14 20:00N 50°58' E 001°51'3 5.9
2017-Aug-14 19:30N 50°58' E 001°46'917.6
2017-Aug-14 19:00N 50°58' E 001°32'917.7
2017-Aug-14 18:30N 51°06' E 001°25'4 7.0
2017-Aug-14 17:59N 51°07' E 001°20'0 0.2
2017-Aug-14 17:30N 51°07' E 001°20'511.1
2017-Aug-14 17:01N 51°07' E 001°29'917.9
2017-Aug-14 16:31N 51°01' E 001°39'815.7
2017-Aug-14 16:00N 50°58' E 001°51'0 0.5
2017-Aug-14 15:30N 50°58' E 001°51'0 0.1
2017-Aug-14 15:00N 50°58' E 001°51'713.3
2017-Aug-14 14:30N 50°59' E 001°40'1019.1
2017-Aug-14 14:00N 51°04' E 001°28'610.8
2017-Aug-14 13:28N 51°07' E 001°20'0 0.0
2017-Aug-14 12:55N 51°07' E 001°20'3 7.7
2017-Aug-14 12:30N 51°07' E 001°25'1019.2
2017-Aug-14 12:00N 51°01' E 001°37'917.7
2017-Aug-14 11:31N 50°58' E 001°51'0 0.6
2017-Aug-14 11:00N 50°58' E 001°51'0 0.1
2017-Aug-14 10:30N 50°58' E 001°51'713.8
2017-Aug-14 10:01N 50°59' E 001°40'918.5
2017-Aug-14 09:31N 51°04' E 001°28'610.6
2017-Aug-14 08:57N 51°07' E 001°20'0 0.0
2017-Aug-14 08:30N 51°07' E 001°20'2 4.2
2017-Aug-14 08:00N 51°07' E 001°23'918.4
2017-Aug-14 07:30N 51°02' E 001°36'918.2
2017-Aug-14 07:01N 50°58' E 001°49'2 3.6
2017-Aug-14 06:30N 50°58' E 001°52'0 0.0
2017-Aug-14 06:00N 50°58' E 001°52'0 0.0
2017-Aug-14 05:30N 50°58' E 001°52'0 0.0
2017-Aug-14 05:00N 50°58' E 001°52'0 0.0
2017-Aug-14 04:31N 50°58' E 001°52'0 0.0
2017-Aug-14 04:00N 50°58' E 001°52'0 0.0
2017-Aug-14 03:30N 50°58' E 001°52'0 0.0
2017-Aug-14 03:00N 50°58' E 001°52'0 0.0
2017-Aug-14 02:30N 50°58' E 001°52'0 0.0
2017-Aug-14 02:00N 50°58' E 001°52'0 0.0
2017-Aug-14 01:30N 50°58' E 001°52'0 0.0
2017-Aug-14 01:00N 50°58' E 001°52'0 0.0
2017-Aug-14 00:30N 50°58' E 001°52'0 0.0
2017-Aug-14 00:00N 50°58' E 001°52'0 0.0
2017-Aug-13 23:30N 50°58' E 001°52'0 0.0
2017-Aug-13 23:00N 50°58' E 001°52'0 0.0
2017-Aug-13 22:30N 50°58' E 001°52'0 0.0
2017-Aug-13 22:00N 50°58' E 001°52'0 0.0
2017-Aug-13 21:30N 50°58' E 001°52'0 0.0
2017-Aug-13 21:00N 50°58' E 001°52'0 0.0
2017-Aug-13 20:30N 50°58' E 001°52'0 0.0
2017-Aug-13 20:00N 50°58' E 001°52'1 1.6
2017-Aug-13 19:30N 50°58' E 001°50'917.6
2017-Aug-13 19:00N 50°58' E 001°36'1019.5
2017-Aug-13 18:30N 51°05' E 001°25'4 7.7
2017-Aug-13 18:00N 51°07' E 001°20'0 0.1
2017-Aug-13 17:30N 51°07' E 001°20'714.3
2017-Aug-13 17:00N 51°05' E 001°31'918.4
2017-Aug-13 16:31N 50°60' E 001°43'510.9
2017-Aug-13 16:00N 50°58' E 001°51'0 0.0
2017-Aug-13 15:30N 50°58' E 001°51'1 2.9
2017-Aug-13 15:00N 50°58' E 001°49'815.9
2017-Aug-13 14:31N 50°58' E 001°36'918.1
2017-Aug-13 14:00N 51°04' E 001°25'4 8.4
2017-Aug-13 13:28N 51°07' E 001°20'0 0.0
2017-Aug-13 13:00N 51°07' E 001°20'4 7.9
2017-Aug-13 12:31N 51°06' E 001°26'1019.1
2017-Aug-13 12:00N 51°00' E 001°38'816.7
2017-Aug-13 11:30N 50°58' E 001°51'0 0.4
2017-Aug-13 11:00N 50°58' E 001°51'1 2.1
2017-Aug-13 10:30N 50°58' E 001°49'816.5
2017-Aug-13 10:01N 50°59' E 001°36'1019.2
2017-Aug-13 09:31N 51°06' E 001°26'4 8.2
2017-Aug-13 09:00N 51°07' E 001°20'0 0.0
2017-Aug-13 08:30N 51°07' E 001°20'3 5.1
2017-Aug-13 08:00N 51°07' E 001°24'918.4
2017-Aug-13 07:31N 51°02' E 001°37'917.7
2017-Aug-13 07:00N 50°58' E 001°49'1 2.3
2017-Aug-13 06:30N 50°58' E 001°51'0 0.0
2017-Aug-13 06:00N 50°58' E 001°51'0 0.0
2017-Aug-13 05:31N 50°58' E 001°51'0 0.0
2017-Aug-13 05:00N 50°58' E 001°51'1 1.0
2017-Aug-13 04:30N 50°58' E 001°52'0 0.0
2017-Aug-13 04:00N 50°58' E 001°52'0 0.0
2017-Aug-13 03:31N 50°58' E 001°52'0 0.0
2017-Aug-13 03:01N 50°58' E 001°52'0 0.0
2017-Aug-13 02:30N 50°58' E 001°52'0 0.0
2017-Aug-13 02:00N 50°58' E 001°52'0 0.0
2017-Aug-13 01:31N 50°58' E 001°52'0 0.0
2017-Aug-13 01:00N 50°58' E 001°52'0 0.0
2017-Aug-13 00:30N 50°58' E 001°52'0 0.0
2017-Aug-13 00:01N 50°58' E 001°52'0 0.0
2017-Aug-12 23:31N 50°58' E 001°52'0 0.0
2017-Aug-12 22:30N 50°58' E 001°52'0 0.0
2017-Aug-12 22:00N 50°58' E 001°52'0 0.0
2017-Aug-12 21:30N 50°58' E 001°52'0 0.0
2017-Aug-12 21:00N 50°58' E 001°52'0 0.0
2017-Aug-12 20:31N 50°58' E 001°52'0 0.3
2017-Aug-12 20:00N 50°58' E 001°52'3 5.1
2017-Aug-12 19:30N 50°58' E 001°48'714.0
2017-Aug-12 19:00N 51°00' E 001°37'1019.2
2017-Aug-12 18:30N 51°06' E 001°24'3 5.0
2017-Aug-12 17:53N 51°07' E 001°20'1 1.4
2017-Aug-12 17:30N 51°07' E 001°21'816.8
2017-Aug-12 17:00N 51°03' E 001°33'917.6
2017-Aug-12 16:30N 50°59' E 001°44'4 8.4
2017-Aug-12 16:00N 50°58' E 001°51'0 0.0
2017-Aug-12 15:30N 50°58' E 001°51'3 5.7
2017-Aug-12 15:00N 50°58' E 001°47'917.5
2017-Aug-12 14:30N 51°01' E 001°34'1019.0
2017-Aug-12 14:00N 51°07' E 001°21'1 2.0
2017-Aug-12 13:30N 51°07' E 001°20'0 0.3
2017-Aug-12 13:00N 51°07' E 001°20'714.8
2017-Aug-12 12:31N 51°04' E 001°30'816.6
2017-Aug-12 12:01N 50°59' E 001°40'713.4
2017-Aug-12 11:30N 50°58' E 001°51'0 0.0
2017-Aug-12 11:01N 50°58' E 001°51'1 1.8
2017-Aug-12 10:30N 50°58' E 001°50'815.7
2017-Aug-12 10:00N 50°60' E 001°37'918.2
2017-Aug-12 09:30N 51°05' E 001°25'4 8.5
2017-Aug-12 09:00N 51°07' E 001°20'0 0.0
2017-Aug-12 08:30N 51°07' E 001°20'1 2.4
2017-Aug-12 08:01N 51°07' E 001°22'918.6
2017-Aug-12 07:30N 51°03' E 001°35'918.3
2017-Aug-12 07:00N 50°58' E 001°48'2 4.3
2017-Aug-12 06:30N 50°58' E 001°51'0 0.0
2017-Aug-12 06:01N 50°58' E 001°51'4 7.9
2017-Aug-12 05:31N 50°58' E 001°45'918.8
2017-Aug-12 05:00N 51°03' E 001°32'916.4
2017-Aug-12 04:28N 51°07' E 001°20'0 0.0
2017-Aug-12 04:00N 51°07' E 001°20'0 0.0
2017-Aug-12 03:30N 51°07' E 001°20'0 0.3
2017-Aug-12 03:00N 51°07' E 001°20'714.7
2017-Aug-12 02:30N 51°05' E 001°31'816.1
2017-Aug-12 02:00N 50°60' E 001°41'612.9
2017-Aug-12 01:30N 50°58' E 001°51'0 0.3
2017-Aug-12 01:00N 50°58' E 001°51'0 0.0
2017-Aug-12 00:30N 50°58' E 001°51'0 0.0
2017-Aug-12 00:01N 50°58' E 001°51'0 0.0
2017-Aug-11 23:31N 50°58' E 001°51'0 0.0
2017-Aug-11 23:01N 50°58' E 001°51'0 0.0
2017-Aug-11 22:31N 50°58' E 001°51'0 0.0
2017-Aug-11 22:01N 50°58' E 001°51'0 0.0
2017-Aug-11 21:31N 50°58' E 001°51'0 0.0
2017-Aug-11 21:00N 50°58' E 001°51'0 0.0
2017-Aug-11 20:31N 50°58' E 001°51'0 0.0
2017-Aug-11 20:01N 50°58' E 001°51'1 2.5
2017-Aug-11 19:31N 50°58' E 001°49'917.2
2017-Aug-11 19:01N 51°00' E 001°36'1019.4
2017-Aug-11 18:30N 51°06' E 001°23'2 4.6
2017-Aug-11 18:00N 51°07' E 001°20'0 0.2
2017-Aug-11 17:29N 51°07' E 001°20'714.7
2017-Aug-11 17:01N 51°06' E 001°31'917.6
2017-Aug-11 16:30N 50°60' E 001°41'612.6
2017-Aug-11 16:00N 50°58' E 001°51'0 0.0
2017-Aug-11 15:31N 50°58' E 001°51'2 3.5
2017-Aug-11 15:00N 50°58' E 001°48'1919.0
2017-Aug-11 14:00N 51°07' E 001°22'1 1.9
2017-Aug-11 13:30N 51°07' E 001°20'0 0.1
2017-Aug-11 12:58N 51°07' E 001°20'510.9
2017-Aug-11 12:31N 51°06' E 001°28'918.8
2017-Aug-11 12:00N 51°00' E 001°39'714.9
2017-Aug-11 11:30N 50°58' E 001°51'0 0.3
2017-Aug-11 11:00N 50°58' E 001°51'0 0.9
2017-Aug-11 10:30N 50°58' E 001°50'816.0
2017-Aug-11 10:01N 50°60' E 001°38'918.3
2017-Aug-11 09:31N 51°05' E 001°26'4 8.9
2017-Aug-11 09:00N 51°07' E 001°20'0 0.0
2017-Aug-11 08:30N 51°07' E 001°20'0 0.7
2017-Aug-11 08:00N 51°07' E 001°20'815.5
2017-Aug-11 07:30N 51°04' E 001°31'1019.3
2017-Aug-11 07:00N 50°58' E 001°44'4 8.6
2017-Aug-11 06:30N 50°58' E 001°51'0 0.0
2017-Aug-11 06:00N 50°58' E 001°51'2 3.9
2017-Aug-11 05:31N 50°58' E 001°48'917.4
2017-Aug-11 05:01N 51°01' E 001°35'918.9
2017-Aug-11 04:31N 51°06' E 001°23'2 3.9
2017-Aug-11 04:00N 51°07' E 001°20'0 0.0
2017-Aug-11 03:30N 51°07' E 001°20'1 1.8
2017-Aug-11 03:00N 51°07' E 001°22'715.0
2017-Aug-11 02:30N 51°04' E 001°32'815.4
2017-Aug-11 02:01N 50°59' E 001°41'611.9
2017-Aug-11 01:30N 50°58' E 001°51'0 0.4
2017-Aug-11 01:00N 50°58' E 001°51'0 0.0
2017-Aug-11 00:31N 50°58' E 001°51'0 0.0
2017-Aug-11 00:00N 50°58' E 001°51'0 0.0
2017-Aug-10 23:30N 50°58' E 001°51'0 0.0
2017-Aug-10 23:00N 50°58' E 001°51'0 0.0
2017-Aug-10 22:30N 50°58' E 001°51'0 0.0
2017-Aug-10 22:00N 50°58' E 001°51'0 0.0
2017-Aug-10 21:30N 50°58' E 001°51'0 0.0
2017-Aug-10 21:00N 50°58' E 001°51'0 0.0
2017-Aug-10 20:30N 50°58' E 001°51'2 3.5
2017-Aug-10 20:00N 50°58' E 001°48'4 7.4
2017-Aug-10 19:31N 50°58' E 001°42'917.5
2017-Aug-10 19:01N 51°03' E 001°30'816.0
2017-Aug-10 18:30N 51°07' E 001°20'0 0.0
2017-Aug-10 18:00N 51°07' E 001°20'0 0.5
2017-Aug-10 17:28N 51°07' E 001°20'510.4
2017-Aug-10 17:01N 51°06' E 001°27'918.3
2017-Aug-10 16:31N 51°00' E 001°39'815.2
2017-Aug-10 16:00N 50°58' E 001°51'0 0.4
2017-Aug-10 15:30N 50°58' E 001°51'0 1.0
2017-Aug-10 15:01N 50°58' E 001°50'918.0
2017-Aug-10 14:31N 50°60' E 001°36'1019.2
2017-Aug-10 14:00N 51°06' E 001°24'3 5.9
2017-Aug-10 13:29N 51°07' E 001°20'0 0.0
2017-Aug-10 13:00N 51°07' E 001°20'5 9.2
2017-Aug-10 12:30N 51°05' E 001°27'918.1
2017-Aug-10 12:01N 51°01' E 001°39'815.5
2017-Aug-10 11:30N 50°58' E 001°51'0 0.5
2017-Aug-10 11:00N 50°58' E 001°51'0 0.3
2017-Aug-10 10:30N 50°58' E 001°51'815.0
2017-Aug-10 10:00N 50°58' E 001°39'917.8
2017-Aug-10 09:30N 51°04' E 001°27'611.8
2017-Aug-10 09:00N 51°07' E 001°20'0 0.0
2017-Aug-10 08:30N 51°07' E 001°20'1 2.1
2017-Aug-10 08:00N 51°07' E 001°22'917.3
2017-Aug-10 07:30N 51°03' E 001°34'918.7
2017-Aug-10 07:00N 50°58' E 001°46'3 6.1
2017-Aug-10 06:30N 50°58' E 001°51'0 0.0
2017-Aug-10 06:00N 50°58' E 001°51'4 8.9
2017-Aug-10 05:30N 50°58' E 001°44'918.2
2017-Aug-10 05:00N 51°02' E 001°31'916.7
2017-Aug-10 04:30N 51°07' E 001°20'0 0.7
2017-Aug-10 04:00N 51°07' E 001°20'0 0.0
2017-Aug-10 03:30N 51°07' E 001°20'1 2.3
2017-Aug-10 03:00N 51°07' E 001°22'714.6
2017-Aug-10 02:30N 51°05' E 001°33'817.0
2017-Aug-10 02:01N 50°60' E 001°43'611.1
2017-Aug-10 01:30N 50°58' E 001°52'0 0.1
2017-Aug-10 01:01N 50°58' E 001°52'0 0.0
2017-Aug-10 00:30N 50°58' E 001°52'0 0.0
2017-Aug-10 00:00N 50°58' E 001°52'0 0.0
2017-Aug-09 23:30N 50°58' E 001°52'0 0.0
2017-Aug-09 23:00N 50°58' E 001°52'0 0.0
2017-Aug-09 22:31N 50°58' E 001°52'0 0.0
2017-Aug-09 22:01N 50°58' E 001°52'0 0.0
2017-Aug-09 21:31N 50°58' E 001°52'0 0.0
2017-Aug-09 21:00N 50°58' E 001°52'0 0.0
2017-Aug-09 20:30N 50°58' E 001°52'0 0.0
2017-Aug-09 20:00N 50°58' E 001°52'1 1.5
2017-Aug-09 19:30N 50°58' E 001°51'815.3
2017-Aug-09 19:00N 50°59' E 001°39'1019.2
2017-Aug-09 18:30N 51°05' E 001°26'5 9.0
2017-Aug-09 18:00N 51°07' E 001°20'0 0.0
2017-Aug-09 17:26N 51°07' E 001°20'511.1
2017-Aug-09 17:00N 51°06' E 001°27'918.8
2017-Aug-09 16:30N 51°00' E 001°39'815.2
2017-Aug-09 16:00N 50°58' E 001°51'0 0.2
2017-Aug-09 15:30N 50°58' E 001°51'1 2.5
2017-Aug-09 15:01N 50°58' E 001°49'918.5
2017-Aug-09 14:30N 51°01' E 001°35'1019.2
2017-Aug-09 14:00N 51°07' E 001°23'2 3.4
2017-Aug-09 13:30N 51°07' E 001°20'0 0.2
2017-Aug-09 12:54N 51°07' E 001°20'513.3
2017-Aug-09 12:30N 51°05' E 001°28'918.3
2017-Aug-09 12:00N 51°00' E 001°40'714.4
2017-Aug-09 11:31N 50°58' E 001°51'0 0.5
2017-Aug-09 11:00N 50°58' E 001°51'0 0.1
2017-Aug-09 10:30N 50°58' E 001°51'815.6
2017-Aug-09 10:00N 50°59' E 001°39'918.8
2017-Aug-09 09:30N 51°05' E 001°27'5 4.1
2017-Aug-09 08:18N 51°07' E 001°20'0 0.3
2017-Aug-09 08:01N 51°07' E 001°20'917.4
2017-Aug-09 07:30N 51°04' E 001°33'1019.2
2017-Aug-09 07:01N 50°58' E 001°45'4 7.3
2017-Aug-09 06:30N 50°58' E 001°51'0 0.0
2017-Aug-09 06:00N 50°58' E 001°51'3 5.7
2017-Aug-09 05:30N 50°58' E 001°46'917.6
2017-Aug-09 05:00N 51°02' E 001°34'918.9
2017-Aug-09 04:30N 51°07' E 001°21'1 1.8
2017-Aug-09 04:00N 51°07' E 001°20'0 0.0
2017-Aug-09 03:31N 51°07' E 001°20'0 0.3
2017-Aug-09 03:01N 51°07' E 001°20'714.4
2017-Aug-09 02:30N 51°05' E 001°31'815.3
2017-Aug-09 02:00N 51°00' E 001°41'611.6
2017-Aug-09 01:30N 50°58' E 001°49'1 2.0
2017-Aug-09 01:00N 50°58' E 001°51'0 0.0
2017-Aug-09 00:30N 50°58' E 001°51'0 0.0
2017-Aug-09 00:00N 50°58' E 001°51'0 0.0
2017-Aug-08 23:30N 50°58' E 001°51'0 0.0
2017-Aug-08 23:00N 50°58' E 001°51'0 0.0
2017-Aug-08 22:31N 50°58' E 001°51'0 0.0
2017-Aug-08 22:00N 50°58' E 001°51'0 0.0
2017-Aug-08 21:30N 50°58' E 001°51'0 0.0
2017-Aug-08 21:00N 50°58' E 001°51'0 0.0
2017-Aug-08 20:30N 50°58' E 001°51'3 5.5
2017-Aug-08 20:01N 50°58' E 001°47'816.3
2017-Aug-08 19:30N 50°59' E 001°34'1019.0
2017-Aug-08 19:00N 51°06' E 001°23'2 4.5
2017-Aug-08 18:30N 51°07' E 001°20'0 0.0
2017-Aug-08 18:00N 51°07' E 001°20'510.7
2017-Aug-08 17:31N 51°07' E 001°29'816.9
2017-Aug-08 17:01N 51°02' E 001°40'815.6
2017-Aug-08 16:30N 50°58' E 001°51'0 0.4
2017-Aug-08 16:01N 50°58' E 001°51'0 0.1
2017-Aug-08 15:31N 50°58' E 001°51'816.3
2017-Aug-08 15:00N 50°58' E 001°38'917.3
2017-Aug-08 14:30N 51°04' E 001°28'610.9
2017-Aug-08 13:57N 51°07' E 001°20'0 0.0
2017-Aug-08 13:30N 51°07' E 001°20'1 1.8
2017-Aug-08 13:00N 51°07' E 001°21'918.0
2017-Aug-08 12:30N 51°03' E 001°34'917.7
2017-Aug-08 12:01N 50°58' E 001°46'3 6.6
2017-Aug-08 11:30N 50°58' E 001°51'0 0.0
2017-Aug-08 11:01N 50°58' E 001°51'  
Track history (hours):
 
Tides and Currents Weather Stations Pressure Air Temp Water Temp Dewpoint Dewpoint Depression Visibility Wind Speed Wind Dir Waves Ship Positions

Pride Of Burgundy

Operator: P & O Ferries

Last reported at 2017-Aug-18 10:31 UTC. Time now 2017-Aug-18 10:51 UTC.
Position N 50°58' E 001°50'.

Length 180 m; draft 6.2 m.

Type: Passenger vessel. MMSI: 232001470.

Date/timePositionNaut miles runAvg speedWind from/ knotsBaromVisibWave heightAir tempDewpointWater temp
2017-Aug-18 10:31N 50°58' E 001°50'918.3
2017-Aug-18 10:00N 51°01' E 001°36'1019.3
2017-Aug-18 09:30N 51°06' E 001°24'3 5.4
2017-Aug-18 09:00N 51°07' E 001°20'0 0.0
2017-Aug-18 08:30N 51°07' E 001°20'3 5.9
2017-Aug-18 08:01N 51°07' E 001°25'917.2
2017-Aug-18 07:31N 51°02' E 001°36'816.0
2017-Aug-18 07:00N 50°58' E 001°47'2 4.6
2017-Aug-18 06:30N 50°58' E 001°51'0 0.0
2017-Aug-18 06:00N 50°58' E 001°51'5 9.4
2017-Aug-18 05:31N 50°58' E 001°44'918.8
2017-Aug-18 05:01N 51°03' E 001°31'815.7
2017-Aug-18 04:30N 51°07' E 001°20'0 0.0
2017-Aug-18 04:01N 51°07' E 001°20'0 0.0
2017-Aug-18 03:30N 51°07' E 001°20'0 0.7
2017-Aug-18 03:00N 51°07' E 001°21'816.9
2017-Aug-18 02:30N 51°06' E 001°34'816.4
2017-Aug-18 02:00N 50°59' E 001°42'611.5
2017-Aug-18 01:30N 50°58' E 001°51'0 0.0
2017-Aug-18 01:00N 50°58' E 001°51'0 0.0
2017-Aug-18 00:31N 50°58' E 001°51'0 0.0
2017-Aug-18 00:00N 50°58' E 001°51'0 0.0
2017-Aug-17 23:30N 50°58' E 001°51'0 0.0
2017-Aug-17 23:00N 50°58' E 001°51'0 0.0
2017-Aug-17 22:30N 50°58' E 001°51'0 0.0
2017-Aug-17 22:00N 50°58' E 001°51'0 0.0
2017-Aug-17 21:30N 50°58' E 001°51'0 0.0
2017-Aug-17 21:00N 50°58' E 001°51'0 0.0
2017-Aug-17 20:30N 50°58' E 001°51'0 0.0
2017-Aug-17 20:00N 50°58' E 001°51'2 3.7
2017-Aug-17 19:31N 50°58' E 001°48'1019.6
2017-Aug-17 19:00N 51°01' E 001°33'918.9
2017-Aug-17 18:30N 51°07' E 001°21'1 1.6
2017-Aug-17 17:57N 51°07' E 001°20'0 0.2
2017-Aug-17 17:30N 51°07' E 001°20'713.7
2017-Aug-17 17:00N 51°05' E 001°30'918.2
2017-Aug-17 16:30N 50°60' E 001°42'611.8
2017-Aug-17 16:00N 50°58' E 001°51'0 0.0
2017-Aug-17 15:30N 50°58' E 001°51'2 5.0
2017-Aug-17 15:00N 50°58' E 001°47'917.5
2017-Aug-17 14:30N 51°00' E 001°34'918.6
2017-Aug-17 14:00N 51°06' E 001°22'2 3.6
2017-Aug-17 13:30N 51°07' E 001°20'0 0.0
2017-Aug-17 12:58N 51°07' E 001°20'613.7
2017-Aug-17 12:30N 51°06' E 001°30'918.1
2017-Aug-17 12:00N 50°60' E 001°40'714.3
2017-Aug-17 11:30N 50°58' E 001°51'0 0.0
2017-Aug-17 11:00N 50°58' E 001°51'0 0.7
2017-Aug-17 10:30N 50°58' E 001°51'917.1
2017-Aug-17 10:00N 50°60' E 001°37'919.0
2017-Aug-17 09:30N 51°05' E 001°25'4 7.3
2017-Aug-17 09:00N 51°07' E 001°20'0 0.0
2017-Aug-17 08:28N 51°07' E 001°20'3 6.6
2017-Aug-17 08:00N 51°07' E 001°25'917.9
2017-Aug-17 07:30N 51°02' E 001°37'816.3
2017-Aug-17 07:00N 50°58' E 001°48'2 3.2
2017-Aug-17 06:30N 50°58' E 001°51'0 0.0
2017-Aug-17 06:00N 50°58' E 001°51'3 5.2
2017-Aug-17 05:30N 50°58' E 001°47'1019.5
2017-Aug-17 05:00N 51°01' E 001°32'917.5
2017-Aug-17 04:30N 51°07' E 001°22'1 2.1
2017-Aug-17 04:00N 51°07' E 001°20'0 0.0
2017-Aug-17 03:30N 51°07' E 001°20'0 0.1
2017-Aug-17 02:58N 51°07' E 001°20'613.4
2017-Aug-17 02:30N 51°05' E 001°29'918.1
2017-Aug-17 02:00N 50°60' E 001°41'613.0
2017-Aug-17 01:30N 50°58' E 001°51'0 0.0
2017-Aug-17 01:00N 50°58' E 001°51'0 0.0
2017-Aug-17 00:30N 50°58' E 001°51'0 0.0
2017-Aug-17 00:00N 50°58' E 001°51'0 0.0
2017-Aug-16 23:30N 50°58' E 001°51'0 0.0
2017-Aug-16 23:00N 50°58' E 001°51'0 0.0
2017-Aug-16 22:30N 50°58' E 001°51'0 0.0
2017-Aug-16 22:00N 50°58' E 001°51'0 0.0
2017-Aug-16 21:30N 50°58' E 001°51'0 0.0
2017-Aug-16 21:00N 50°58' E 001°51'0 0.0
2017-Aug-16 20:30N 50°58' E 001°51'0 0.0
2017-Aug-16 20:00N 50°58' E 001°51'3 6.2
2017-Aug-16 19:30N 50°58' E 001°46'1019.5
2017-Aug-16 19:00N 51°01' E 001°31'918.3
2017-Aug-16 18:30N 51°07' E 001°21'0 0.7
2017-Aug-16 18:00N 51°07' E 001°20'0 0.1
2017-Aug-16 17:29N 51°07' E 001°20'714.6
2017-Aug-16 17:00N 51°04' E 001°30'918.7
2017-Aug-16 16:30N 50°59' E 001°43'510.7
2017-Aug-16 16:00N 50°58' E 001°51'0 0.0
2017-Aug-16 15:31N 50°58' E 001°51'1 2.5
2017-Aug-16 15:00N 50°58' E 001°49'917.3
2017-Aug-16 14:30N 51°01' E 001°36'918.4
2017-Aug-16 14:00N 51°06' E 001°24'3 5.3
2017-Aug-16 13:29N 51°07' E 001°20'0 0.0
2017-Aug-16 13:00N 51°07' E 001°20'3 6.2
2017-Aug-16 12:31N 51°06' E 001°25'1019.1
2017-Aug-16 12:01N 51°01' E 001°38'917.6
2017-Aug-16 11:30N 50°58' E 001°51'0 0.5
2017-Aug-16 11:00N 50°58' E 001°51'2 3.1
2017-Aug-16 10:30N 50°58' E 001°49'917.8
2017-Aug-16 10:00N 50°60' E 001°35'1019.1
2017-Aug-16 09:30N 51°06' E 001°23'2 4.6
2017-Aug-16 08:59N 51°07' E 001°20'0 0.0
2017-Aug-16 08:29N 51°07' E 001°20'510.5
2017-Aug-16 08:00N 51°06' E 001°28'918.3
2017-Aug-16 07:31N 51°00' E 001°39'815.5
2017-Aug-16 07:01N 50°58' E 001°51'0 0.4
2017-Aug-16 06:31N 50°58' E 001°51'0 1.0
2017-Aug-16 06:00N 50°58' E 001°50'918.0
2017-Aug-16 05:30N 50°60' E 001°36'918.9
2017-Aug-16 05:00N 51°06' E 001°25'3 6.2
2017-Aug-16 04:28N 51°07' E 001°20'0 0.0
2017-Aug-16 04:00N 51°07' E 001°20'0 0.0
2017-Aug-16 03:30N 51°07' E 001°20'0 0.1
2017-Aug-16 03:00N 51°07' E 001°20'613.2
2017-Aug-16 02:31N 51°05' E 001°30'917.7
2017-Aug-16 02:01N 50°59' E 001°40'713.6
2017-Aug-16 01:30N 50°58' E 001°51'0 0.0
2017-Aug-16 01:00N 50°58' E 001°51'0 0.0
2017-Aug-16 00:31N 50°58' E 001°51'0 0.0
2017-Aug-16 00:00N 50°58' E 001°51'0 0.0
2017-Aug-15 23:30N 50°58' E 001°51'0 0.0
2017-Aug-15 23:00N 50°58' E 001°51'0 0.0
2017-Aug-15 22:30N 50°58' E 001°51'0 0.0
2017-Aug-15 22:00N 50°58' E 001°51'0 0.0
2017-Aug-15 21:30N 50°58' E 001°51'0 0.0
2017-Aug-15 21:00N 50°58' E 001°51'0 0.0
2017-Aug-15 20:30N 50°58' E 001°51'0 0.0
2017-Aug-15 20:00N 50°58' E 001°51'0 0.3
2017-Aug-15 19:30N 50°58' E 001°51'917.5
2017-Aug-15 19:00N 50°60' E 001°37'1019.4
2017-Aug-15 18:30N 51°05' E 001°25'3 6.9
2017-Aug-15 18:00N 51°07' E 001°20'0 0.0
2017-Aug-15 17:30N 51°07' E 001°20'4 9.0
2017-Aug-15 17:01N 51°06' E 001°27'918.2
2017-Aug-15 16:31N 51°01' E 001°39'815.5
2017-Aug-15 16:00N 50°58' E 001°50'0 1.0
2017-Aug-15 15:30N 50°58' E 001°51'0 0.3
2017-Aug-15 15:01N 50°58' E 001°51'917.6
2017-Aug-15 14:30N 50°59' E 001°37'918.6
2017-Aug-15 14:01N 51°05' E 001°26'4 8.4
2017-Aug-15 13:30N 51°07' E 001°20'0 0.0
2017-Aug-15 13:00N 51°07' E 001°20'2 4.1
2017-Aug-15 12:31N 51°07' E 001°23'1019.4
2017-Aug-15 12:01N 51°02' E 001°36'918.2
2017-Aug-15 11:30N 50°58' E 001°50'1 1.5
2017-Aug-15 11:00N 50°58' E 001°51'0 0.0
2017-Aug-15 10:30N 50°58' E 001°51'612.0
2017-Aug-15 10:01N 50°58' E 001°41'918.6
2017-Aug-15 09:30N 51°04' E 001°29'713.6
2017-Aug-15 09:00N 51°07' E 001°20'0 0.0
2017-Aug-15 08:28N 51°07' E 001°20'0 0.3
2017-Aug-15 08:00N 51°07' E 001°20'815.9
2017-Aug-15 07:31N 51°04' E 001°32'918.7
2017-Aug-15 07:00N 50°59' E 001°44'5 9.2
2017-Aug-15 06:30N 50°58' E 001°51'0 0.0
2017-Aug-15 06:01N 50°58' E 001°51'2 3.7
2017-Aug-15 05:30N 50°58' E 001°48'1019.2
2017-Aug-15 05:00N 51°01' E 001°33'1019.1
2017-Aug-15 04:30N 51°07' E 001°21'1 2.1
2017-Aug-15 04:00N 51°07' E 001°20'0 0.0
2017-Aug-15 03:30N 51°07' E 001°20'0 0.0
2017-Aug-15 03:00N 51°07' E 001°20'612.8
2017-Aug-15 02:30N 51°04' E 001°29'816.8
2017-Aug-15 02:00N 50°60' E 001°40'713.6
2017-Aug-15 01:30N 50°58' E 001°50'0 0.9
2017-Aug-15 01:00N 50°58' E 001°51'0 0.0
2017-Aug-15 00:30N 50°58' E 001°51'0 0.0
2017-Aug-15 00:00N 50°58' E 001°51'0 0.0
2017-Aug-14 23:30N 50°58' E 001°51'0 0.0
2017-Aug-14 23:00N 50°58' E 001°51'0 0.0
2017-Aug-14 22:30N 50°58' E 001°51'0 0.0
2017-Aug-14 22:00N 50°58' E 001°51'0 0.0
2017-Aug-14 21:30N 50°58' E 001°51'0 0.0
2017-Aug-14 21:00N 50°58' E 001°51'0 0.0
2017-Aug-14 20:30N 50°58' E 001°51'0 0.0
2017-Aug-14 20:00N 50°58' E 001°51'3 5.9
2017-Aug-14 19:30N 50°58' E 001°46'917.6
2017-Aug-14 19:00N 50°58' E 001°32'917.7
2017-Aug-14 18:30N 51°06' E 001°25'4 7.0
2017-Aug-14 17:59N 51°07' E 001°20'0 0.2
2017-Aug-14 17:30N 51°07' E 001°20'511.1
2017-Aug-14 17:01N 51°07' E 001°29'917.9
2017-Aug-14 16:31N 51°01' E 001°39'815.7
2017-Aug-14 16:00N 50°58' E 001°51'0 0.5
2017-Aug-14 15:30N 50°58' E 001°51'0 0.1
2017-Aug-14 15:00N 50°58' E 001°51'713.3
2017-Aug-14 14:30N 50°59' E 001°40'1019.1
2017-Aug-14 14:00N 51°04' E 001°28'610.8
2017-Aug-14 13:28N 51°07' E 001°20'0 0.0
2017-Aug-14 12:55N 51°07' E 001°20'3 7.7
2017-Aug-14 12:30N 51°07' E 001°25'1019.2
2017-Aug-14 12:00N 51°01' E 001°37'917.7
2017-Aug-14 11:31N 50°58' E 001°51'0 0.6
2017-Aug-14 11:00N 50°58' E 001°51'0 0.1
2017-Aug-14 10:30N 50°58' E 001°51'713.8
2017-Aug-14 10:01N 50°59' E 001°40'918.5
2017-Aug-14 09:31N 51°04' E 001°28'610.6
2017-Aug-14 08:57N 51°07' E 001°20'0 0.0
2017-Aug-14 08:30N 51°07' E 001°20'2 4.2
2017-Aug-14 08:00N 51°07' E 001°23'918.4
2017-Aug-14 07:30N 51°02' E 001°36'918.2
2017-Aug-14 07:01N 50°58' E 001°49'2 3.6
2017-Aug-14 06:30N 50°58' E 001°52'0 0.0
2017-Aug-14 06:00N 50°58' E 001°52'0 0.0
2017-Aug-14 05:30N 50°58' E 001°52'0 0.0
2017-Aug-14 05:00N 50°58' E 001°52'0 0.0
2017-Aug-14 04:31N 50°58' E 001°52'0 0.0
2017-Aug-14 04:00N 50°58' E 001°52'0 0.0
2017-Aug-14 03:30N 50°58' E 001°52'0 0.0
2017-Aug-14 03:00N 50°58' E 001°52'0 0.0
2017-Aug-14 02:30N 50°58' E 001°52'0 0.0
2017-Aug-14 02:00N 50°58' E 001°52'0 0.0
2017-Aug-14 01:30N 50°58' E 001°52'0 0.0
2017-Aug-14 01:00N 50°58' E 001°52'0 0.0
2017-Aug-14 00:30N 50°58' E 001°52'0 0.0
2017-Aug-14 00:00N 50°58' E 001°52'0 0.0
2017-Aug-13 23:30N 50°58' E 001°52'0 0.0
2017-Aug-13 23:00N 50°58' E 001°52'0 0.0
2017-Aug-13 22:30N 50°58' E 001°52'0 0.0
2017-Aug-13 22:00N 50°58' E 001°52'0 0.0
2017-Aug-13 21:30N 50°58' E 001°52'0 0.0
2017-Aug-13 21:00N 50°58' E 001°52'0 0.0
2017-Aug-13 20:30N 50°58' E 001°52'0 0.0
2017-Aug-13 20:00N 50°58' E 001°52'1 1.6
2017-Aug-13 19:30N 50°58' E 001°50'917.6
2017-Aug-13 19:00N 50°58' E 001°36'1019.5
2017-Aug-13 18:30N 51°05' E 001°25'4 7.7
2017-Aug-13 18:00N 51°07' E 001°20'0 0.1
2017-Aug-13 17:30N 51°07' E 001°20'714.3
2017-Aug-13 17:00N 51°05' E 001°31'918.4
2017-Aug-13 16:31N 50°60' E 001°43'510.9
2017-Aug-13 16:00N 50°58' E 001°51'0 0.0
2017-Aug-13 15:30N 50°58' E 001°51'1 2.9
2017-Aug-13 15:00N 50°58' E 001°49'815.9
2017-Aug-13 14:31N 50°58' E 001°36'918.1
2017-Aug-13 14:00N 51°04' E 001°25'4 8.4
2017-Aug-13 13:28N 51°07' E 001°20'0 0.0
2017-Aug-13 13:00N 51°07' E 001°20'4 7.9
2017-Aug-13 12:31N 51°06' E 001°26'1019.1
2017-Aug-13 12:00N 51°00' E 001°38'816.7
2017-Aug-13 11:30N 50°58' E 001°51'0 0.4
2017-Aug-13 11:00N 50°58' E 001°51'1 2.1
2017-Aug-13 10:30N 50°58' E 001°49'816.5
2017-Aug-13 10:01N 50°59' E 001°36'1019.2
2017-Aug-13 09:31N 51°06' E 001°26'4 8.2
2017-Aug-13 09:00N 51°07' E 001°20'0 0.0
2017-Aug-13 08:30N 51°07' E 001°20'3 5.1
2017-Aug-13 08:00N 51°07' E 001°24'918.4
2017-Aug-13 07:31N 51°02' E 001°37'917.7
2017-Aug-13 07:00N 50°58' E 001°49'1 2.3
2017-Aug-13 06:30N 50°58' E 001°51'0 0.0
2017-Aug-13 06:00N 50°58' E 001°51'0 0.0
2017-Aug-13 05:31N 50°58' E 001°51'0 0.0
2017-Aug-13 05:00N 50°58' E 001°51'1 1.0
2017-Aug-13 04:30N 50°58' E 001°52'0 0.0
2017-Aug-13 04:00N 50°58' E 001°52'0 0.0
2017-Aug-13 03:31N 50°58' E 001°52'0 0.0
2017-Aug-13 03:01N 50°58' E 001°52'0 0.0
2017-Aug-13 02:30N 50°58' E 001°52'0 0.0
2017-Aug-13 02:00N 50°58' E 001°52'0 0.0
2017-Aug-13 01:31N 50°58' E 001°52'0 0.0
2017-Aug-13 01:00N 50°58' E 001°52'0 0.0
2017-Aug-13 00:30N 50°58' E 001°52'0 0.0
2017-Aug-13 00:01N 50°58' E 001°52'0 0.0
2017-Aug-12 23:31N 50°58' E 001°52'0 0.0
2017-Aug-12 22:30N 50°58' E 001°52'0 0.0
2017-Aug-12 22:00N 50°58' E 001°52'0 0.0
2017-Aug-12 21:30N 50°58' E 001°52'0 0.0
2017-Aug-12 21:00N 50°58' E 001°52'0 0.0
2017-Aug-12 20:31N 50°58' E 001°52'0 0.3
2017-Aug-12 20:00N 50°58' E 001°52'3 5.1
2017-Aug-12 19:30N 50°58' E 001°48'714.0
2017-Aug-12 19:00N 51°00' E 001°37'1019.2
2017-Aug-12 18:30N 51°06' E 001°24'3 5.0
2017-Aug-12 17:53N 51°07' E 001°20'1 1.4
2017-Aug-12 17:30N 51°07' E 001°21'816.8
2017-Aug-12 17:00N 51°03' E 001°33'917.6
2017-Aug-12 16:30N 50°59' E 001°44'4 8.4
2017-Aug-12 16:00N 50°58' E 001°51'0 0.0
2017-Aug-12 15:30N 50°58' E 001°51'3 5.7
2017-Aug-12 15:00N 50°58' E 001°47'917.5
2017-Aug-12 14:30N 51°01' E 001°34'1019.0
2017-Aug-12 14:00N 51°07' E 001°21'1 2.0
2017-Aug-12 13:30N 51°07' E 001°20'0 0.3
2017-Aug-12 13:00N 51°07' E 001°20'714.8
2017-Aug-12 12:31N 51°04' E 001°30'816.6
2017-Aug-12 12:01N 50°59' E 001°40'713.4
2017-Aug-12 11:30N 50°58' E 001°51'0 0.0
2017-Aug-12 11:01N 50°58' E 001°51'1 1.8
2017-Aug-12 10:30N 50°58' E 001°50'815.7
2017-Aug-12 10:00N 50°60' E 001°37'918.2
2017-Aug-12 09:30N 51°05' E 001°25'4 8.5
2017-Aug-12 09:00N 51°07' E 001°20'0 0.0
2017-Aug-12 08:30N 51°07' E 001°20'1 2.4
2017-Aug-12 08:01N 51°07' E 001°22'918.6
2017-Aug-12 07:30N 51°03' E 001°35'918.3
2017-Aug-12 07:00N 50°58' E 001°48'2 4.3
2017-Aug-12 06:30N 50°58' E 001°51'0 0.0
2017-Aug-12 06:01N 50°58' E 001°51'4 7.9
2017-Aug-12 05:31N 50°58' E 001°45'918.8
2017-Aug-12 05:00N 51°03' E 001°32'916.4
2017-Aug-12 04:28N 51°07' E 001°20'0 0.0
2017-Aug-12 04:00N 51°07' E 001°20'0 0.0
2017-Aug-12 03:30N 51°07' E 001°20'0 0.3
2017-Aug-12 03:00N 51°07' E 001°20'714.7
2017-Aug-12 02:30N 51°05' E 001°31'816.1
2017-Aug-12 02:00N 50°60' E 001°41'612.9
2017-Aug-12 01:30N 50°58' E 001°51'0 0.3
2017-Aug-12 01:00N 50°58' E 001°51'0 0.0
2017-Aug-12 00:30N 50°58' E 001°51'0 0.0
2017-Aug-12 00:01N 50°58' E 001°51'0 0.0
2017-Aug-11 23:31N 50°58' E 001°51'0 0.0
2017-Aug-11 23:01N 50°58' E 001°51'0 0.0
2017-Aug-11 22:31N 50°58' E 001°51'0 0.0
2017-Aug-11 22:01N 50°58' E 001°51'0 0.0
2017-Aug-11 21:31N 50°58' E 001°51'0 0.0
2017-Aug-11 21:00N 50°58' E 001°51'0 0.0
2017-Aug-11 20:31N 50°58' E 001°51'0 0.0
2017-Aug-11 20:01N 50°58' E 001°51'1 2.5
2017-Aug-11 19:31N 50°58' E 001°49'917.2
2017-Aug-11 19:01N 51°00' E 001°36'1019.4
2017-Aug-11 18:30N 51°06' E 001°23'2 4.6
2017-Aug-11 18:00N 51°07' E 001°20'0 0.2
2017-Aug-11 17:29N 51°07' E 001°20'714.7
2017-Aug-11 17:01N 51°06' E 001°31'917.6
2017-Aug-11 16:30N 50°60' E 001°41'612.6
2017-Aug-11 16:00N 50°58' E 001°51'0 0.0
2017-Aug-11 15:31N 50°58' E 001°51'2 3.5
2017-Aug-11 15:00N 50°58' E 001°48'1919.0
2017-Aug-11 14:00N 51°07' E 001°22'1 1.9
2017-Aug-11 13:30N 51°07' E 001°20'0 0.1
2017-Aug-11 12:58N 51°07' E 001°20'510.9
2017-Aug-11 12:31N 51°06' E 001°28'918.8
2017-Aug-11 12:00N 51°00' E 001°39'714.9
2017-Aug-11 11:30N 50°58' E 001°51'0 0.3
2017-Aug-11 11:00N 50°58' E 001°51'0 0.9
2017-Aug-11 10:30N 50°58' E 001°50'816.0
2017-Aug-11 10:01N 50°60' E 001°38'918.3
2017-Aug-11 09:31N 51°05' E 001°26'4 8.9
2017-Aug-11 09:00N 51°07' E 001°20'0 0.0
2017-Aug-11 08:30N 51°07' E 001°20'0 0.7
2017-Aug-11 08:00N 51°07' E 001°20'815.5
2017-Aug-11 07:30N 51°04' E 001°31'1019.3
2017-Aug-11 07:00N 50°58' E 001°44'4 8.6
2017-Aug-11 06:30N 50°58' E 001°51'0 0.0
2017-Aug-11 06:00N 50°58' E 001°51'2 3.9
2017-Aug-11 05:31N 50°58' E 001°48'917.4
2017-Aug-11 05:01N 51°01' E 001°35'918.9
2017-Aug-11 04:31N 51°06' E 001°23'2 3.9
2017-Aug-11 04:00N 51°07' E 001°20'0 0.0
2017-Aug-11 03:30N 51°07' E 001°20'1 1.8
2017-Aug-11 03:00N 51°07' E 001°22'715.0
2017-Aug-11 02:30N 51°04' E 001°32'815.4
2017-Aug-11 02:01N 50°59' E 001°41'611.9
2017-Aug-11 01:30N 50°58' E 001°51'0 0.4
2017-Aug-11 01:00N 50°58' E 001°51'0 0.0
2017-Aug-11 00:31N 50°58' E 001°51'0 0.0
2017-Aug-11 00:00N 50°58' E 001°51'0 0.0
2017-Aug-10 23:30N 50°58' E 001°51'0 0.0
2017-Aug-10 23:00N 50°58' E 001°51'0 0.0
2017-Aug-10 22:30N 50°58' E 001°51'0 0.0
2017-Aug-10 22:00N 50°58' E 001°51'0 0.0
2017-Aug-10 21:30N 50°58' E 001°51'0 0.0
2017-Aug-10 21:00N 50°58' E 001°51'0 0.0
2017-Aug-10 20:30N 50°58' E 001°51'2 3.5
2017-Aug-10 20:00N 50°58' E 001°48'4 7.4
2017-Aug-10 19:31N 50°58' E 001°42'917.5
2017-Aug-10 19:01N 51°03' E 001°30'816.0
2017-Aug-10 18:30N 51°07' E 001°20'0 0.0
2017-Aug-10 18:00N 51°07' E 001°20'0 0.5
2017-Aug-10 17:28N 51°07' E 001°20'510.4
2017-Aug-10 17:01N 51°06' E 001°27'918.3
2017-Aug-10 16:31N 51°00' E 001°39'815.2
2017-Aug-10 16:00N 50°58' E 001°51'0 0.4
2017-Aug-10 15:30N 50°58' E 001°51'0 1.0
2017-Aug-10 15:01N 50°58' E 001°50'918.0
2017-Aug-10 14:31N 50°60' E 001°36'1019.2
2017-Aug-10 14:00N 51°06' E 001°24'3 5.9
2017-Aug-10 13:29N 51°07' E 001°20'0 0.0
2017-Aug-10 13:00N 51°07' E 001°20'5 9.2
2017-Aug-10 12:30N 51°05' E 001°27'918.1
2017-Aug-10 12:01N 51°01' E 001°39'815.5
2017-Aug-10 11:30N 50°58' E 001°51'0 0.5
2017-Aug-10 11:00N 50°58' E 001°51'0 0.3
2017-Aug-10 10:30N 50°58' E 001°51'815.0
2017-Aug-10 10:00N 50°58' E 001°39'917.8
2017-Aug-10 09:30N 51°04' E 001°27'611.8
2017-Aug-10 09:00N 51°07' E 001°20'0 0.0
2017-Aug-10 08:30N 51°07' E 001°20'1 2.1
2017-Aug-10 08:00N 51°07' E 001°22'917.3
2017-Aug-10 07:30N 51°03' E 001°34'918.7
2017-Aug-10 07:00N 50°58' E 001°46'3 6.1
2017-Aug-10 06:30N 50°58' E 001°51'0 0.0
2017-Aug-10 06:00N 50°58' E 001°51'4 8.9
2017-Aug-10 05:30N 50°58' E 001°44'918.2
2017-Aug-10 05:00N 51°02' E 001°31'916.7
2017-Aug-10 04:30N 51°07' E 001°20'0 0.7
2017-Aug-10 04:00N 51°07' E 001°20'0 0.0
2017-Aug-10 03:30N 51°07' E 001°20'1 2.3
2017-Aug-10 03:00N 51°07' E 001°22'714.6
2017-Aug-10 02:30N 51°05' E 001°33'817.0
2017-Aug-10 02:01N 50°60' E 001°43'611.1
2017-Aug-10 01:30N 50°58' E 001°52'0 0.1
2017-Aug-10 01:01N 50°58' E 001°52'0 0.0
2017-Aug-10 00:30N 50°58' E 001°52'0 0.0
2017-Aug-10 00:00N 50°58' E 001°52'0 0.0
2017-Aug-09 23:30N 50°58' E 001°52'0 0.0
2017-Aug-09 23:00N 50°58' E 001°52'0 0.0
2017-Aug-09 22:31N 50°58' E 001°52'0 0.0
2017-Aug-09 22:01N 50°58' E 001°52'0 0.0
2017-Aug-09 21:31N 50°58' E 001°52'0 0.0
2017-Aug-09 21:00N 50°58' E 001°52'0 0.0
2017-Aug-09 20:30N 50°58' E 001°52'0 0.0
2017-Aug-09 20:00N 50°58' E 001°52'1 1.5
2017-Aug-09 19:30N 50°58' E 001°51'815.3
2017-Aug-09 19:00N 50°59' E 001°39'1019.2
2017-Aug-09 18:30N 51°05' E 001°26'5 9.0
2017-Aug-09 18:00N 51°07' E 001°20'0 0.0
2017-Aug-09 17:26N 51°07' E 001°20'511.1
2017-Aug-09 17:00N 51°06' E 001°27'918.8
2017-Aug-09 16:30N 51°00' E 001°39'815.2
2017-Aug-09 16:00N 50°58' E 001°51'0 0.2
2017-Aug-09 15:30N 50°58' E 001°51'1 2.5
2017-Aug-09 15:01N 50°58' E 001°49'918.5
2017-Aug-09 14:30N 51°01' E 001°35'1019.2
2017-Aug-09 14:00N 51°07' E 001°23'2 3.4
2017-Aug-09 13:30N 51°07' E 001°20'0 0.2
2017-Aug-09 12:54N 51°07' E 001°20'513.3
2017-Aug-09 12:30N 51°05' E 001°28'918.3
2017-Aug-09 12:00N 51°00' E 001°40'714.4
2017-Aug-09 11:31N 50°58' E 001°51'0 0.5
2017-Aug-09 11:00N 50°58' E 001°51'0 0.1
2017-Aug-09 10:30N 50°58' E 001°51'815.6
2017-Aug-09 10:00N 50°59' E 001°39'918.8
2017-Aug-09 09:30N 51°05' E 001°27'5 4.1
2017-Aug-09 08:18N 51°07' E 001°20'0 0.3
2017-Aug-09 08:01N 51°07' E 001°20'917.4
2017-Aug-09 07:30N 51°04' E 001°33'1019.2
2017-Aug-09 07:01N 50°58' E 001°45'4 7.3
2017-Aug-09 06:30N 50°58' E 001°51'0 0.0
2017-Aug-09 06:00N 50°58' E 001°51'3 5.7
2017-Aug-09 05:30N 50°58' E 001°46'917.6
2017-Aug-09 05:00N 51°02' E 001°34'918.9
2017-Aug-09 04:30N 51°07' E 001°21'1 1.8
2017-Aug-09 04:00N 51°07' E 001°20'0 0.0
2017-Aug-09 03:31N 51°07' E 001°20'0 0.3
2017-Aug-09 03:01N 51°07' E 001°20'714.4
2017-Aug-09 02:30N 51°05' E 001°31'815.3
2017-Aug-09 02:00N 51°00' E 001°41'611.6
2017-Aug-09 01:30N 50°58' E 001°49'1 2.0
2017-Aug-09 01:00N 50°58' E 001°51'0 0.0
2017-Aug-09 00:30N 50°58' E 001°51'0 0.0
2017-Aug-09 00:00N 50°58' E 001°51'0 0.0
2017-Aug-08 23:30N 50°58' E 001°51'0 0.0
2017-Aug-08 23:00N 50°58' E 001°51'0 0.0
2017-Aug-08 22:31N 50°58' E 001°51'0 0.0
2017-Aug-08 22:00N 50°58' E 001°51'0 0.0
2017-Aug-08 21:30N 50°58' E 001°51'0 0.0
2017-Aug-08 21:00N 50°58' E 001°51'0 0.0
2017-Aug-08 20:30N 50°58' E 001°51'3 5.5
2017-Aug-08 20:01N 50°58' E 001°47'816.3
2017-Aug-08 19:30N 50°59' E 001°34'1019.0
2017-Aug-08 19:00N 51°06' E 001°23'2 4.5
2017-Aug-08 18:30N 51°07' E 001°20'0 0.0
2017-Aug-08 18:00N 51°07' E 001°20'510.7
2017-Aug-08 17:31N 51°07' E 001°29'816.9
2017-Aug-08 17:01N 51°02' E 001°40'815.6
2017-Aug-08 16:30N 50°58' E 001°51'0 0.4
2017-Aug-08 16:01N 50°58' E 001°51'0 0.1
2017-Aug-08 15:31N 50°58' E 001°51'816.3
2017-Aug-08 15:00N 50°58' E 001°38'917.3
2017-Aug-08 14:30N 51°04' E 001°28'610.9
2017-Aug-08 13:57N 51°07' E 001°20'0 0.0
2017-Aug-08 13:30N 51°07' E 001°20'1 1.8
2017-Aug-08 13:00N 51°07' E 001°21'918.0
2017-Aug-08 12:30N 51°03' E 001°34'917.7
2017-Aug-08 12:01N 50°58' E 001°46'3 6.6
2017-Aug-08 11:30N 50°58' E 001°51'0 0.0
2017-Aug-08 11:01N 50°58' E 001°51'  

Dump ship's entire track history